sensor_id;sensor_type;location;lat;lon;timestamp;pressure;altitude;pressure_sealevel;temperature;humidity
24762;BME280;12865;51.934;10.330;2023-05-25T00:01:44;100014.84;;;11.39;100.00
24762;BME280;12865;51.934;10.330;2023-05-25T00:04:33;100014.09;;;11.48;100.00
24762;BME280;12865;51.934;10.330;2023-05-25T00:07:19;100015.81;;;11.38;100.00
24762;BME280;12865;51.934;10.330;2023-05-25T00:10:05;100011.22;;;11.40;100.00
24762;BME280;12865;51.934;10.330;2023-05-25T00:12:52;100010.38;;;11.28;100.00
24762;BME280;12865;51.934;10.330;2023-05-25T00:15:40;100008.78;;;11.37;100.00
24762;BME280;12865;51.934;10.330;2023-05-25T00:18:25;100011.72;;;11.23;100.00
24762;BME280;12865;51.934;10.330;2023-05-25T00:21:11;100006.16;;;11.26;100.00
24762;BME280;12865;51.934;10.330;2023-05-25T00:23:59;100014.28;;;11.24;100.00
24762;BME280;12865;51.934;10.330;2023-05-25T00:26:45;100007.50;;;11.20;100.00
24762;BME280;12865;51.934;10.330;2023-05-25T00:29:32;100011.88;;;11.10;100.00
24762;BME280;12865;51.934;10.330;2023-05-25T00:32:18;100007.16;;;11.14;100.00
24762;BME280;12865;51.934;10.330;2023-05-25T00:35:04;100001.19;;;11.10;100.00
24762;BME280;12865;51.934;10.330;2023-05-25T00:37:50;100003.63;;;11.13;100.00
24762;BME280;12865;51.934;10.330;2023-05-25T00:40:38;100006.16;;;11.15;100.00
24762;BME280;12865;51.934;10.330;2023-05-25T00:43:25;100003.72;;;11.23;100.00
24762;BME280;12865;51.934;10.330;2023-05-25T00:46:13;100007.38;;;11.11;100.00
24762;BME280;12865;51.934;10.330;2023-05-25T00:48:59;100005.81;;;11.19;100.00
24762;BME280;12865;51.934;10.330;2023-05-25T00:51:46;99999.16;;;11.02;100.00
24762;BME280;12865;51.934;10.330;2023-05-25T00:54:32;100001.06;;;11.00;100.00
24762;BME280;12865;51.934;10.330;2023-05-25T00:57:21;100008.38;;;10.98;100.00
24762;BME280;12865;51.934;10.330;2023-05-25T01:00:08;100003.91;;;10.99;100.00
24762;BME280;12865;51.934;10.330;2023-05-25T01:02:57;99998.22;;;10.92;100.00
24762;BME280;12865;51.934;10.330;2023-05-25T01:05:48;99997.72;;;10.98;100.00
24762;BME280;12865;51.934;10.330;2023-05-25T01:08:37;100000.63;;;11.07;100.00
24762;BME280;12865;51.934;10.330;2023-05-25T01:11:34;100001.59;;;11.06;100.00
24762;BME280;12865;51.934;10.330;2023-05-25T01:14:21;99996.84;;;10.98;100.00
24762;BME280;12865;51.934;10.330;2023-05-25T01:17:09;100002.78;;;11.01;100.00
24762;BME280;12865;51.934;10.330;2023-05-25T01:19:55;100002.06;;;10.99;100.00
24762;BME280;12865;51.934;10.330;2023-05-25T01:22:53;100004.50;;;10.80;100.00
24762;BME280;12865;51.934;10.330;2023-05-25T01:25:44;100002.44;;;10.84;100.00
24762;BME280;12865;51.934;10.330;2023-05-25T01:28:37;100001.34;;;10.75;100.00
24762;BME280;12865;51.934;10.330;2023-05-25T01:31:25;100003.91;;;10.77;100.00
24762;BME280;12865;51.934;10.330;2023-05-25T01:34:12;100003.16;;;10.75;100.00
24762;BME280;12865;51.934;10.330;2023-05-25T01:36:58;99999.91;;;10.71;100.00
24762;BME280;12865;51.934;10.330;2023-05-25T01:39:44;100006.44;;;10.67;100.00
24762;BME280;12865;51.934;10.330;2023-05-25T01:42:29;100003.53;;;10.70;100.00
24762;BME280;12865;51.934;10.330;2023-05-25T01:45:15;100001.97;;;10.68;100.00
24762;BME280;12865;51.934;10.330;2023-05-25T01:54:18;100004.75;;;10.77;100.00
24762;BME280;12865;51.934;10.330;2023-05-25T01:57:06;99999.28;;;10.68;100.00
24762;BME280;12865;51.934;10.330;2023-05-25T02:03:20;100005.00;;;10.74;100.00
24762;BME280;12865;51.934;10.330;2023-05-25T02:06:07;100004.03;;;10.75;100.00
24762;BME280;12865;51.934;10.330;2023-05-25T02:08:53;100001.13;;;10.78;100.00
24762;BME280;12865;51.934;10.330;2023-05-25T02:11:38;100004.75;;;10.77;100.00
24762;BME280;12865;51.934;10.330;2023-05-25T02:14:24;100007.53;;;10.76;100.00
24762;BME280;12865;51.934;10.330;2023-05-25T02:17:10;100005.50;;;10.79;100.00
24762;BME280;12865;51.934;10.330;2023-05-25T02:19:57;100002.81;;;10.79;100.00
24762;BME280;12865;51.934;10.330;2023-05-25T02:22:42;100003.41;;;10.83;100.00
24762;BME280;12865;51.934;10.330;2023-05-25T02:25:28;100002.09;;;10.77;100.00
24762;BME280;12865;51.934;10.330;2023-05-25T02:28:14;99991.03;;;10.82;100.00
24762;BME280;12865;51.934;10.330;2023-05-25T02:31:00;100005.72;;;10.76;100.00
24762;BME280;12865;51.934;10.330;2023-05-25T02:33:45;100003.44;;;10.72;100.00
24762;BME280;12865;51.934;10.330;2023-05-25T02:36:32;99993.72;;;10.71;100.00
24762;BME280;12865;51.934;10.330;2023-05-25T02:39:19;100002.69;;;10.70;100.00
24762;BME280;12865;51.934;10.330;2023-05-25T02:42:05;100002.59;;;10.71;100.00
24762;BME280;12865;51.934;10.330;2023-05-25T02:44:51;100006.69;;;10.75;100.00
24762;BME280;12865;51.934;10.330;2023-05-25T02:47:36;99992.63;;;10.73;100.00
24762;BME280;12865;51.934;10.330;2023-05-25T02:50:22;100002.69;;;10.70;100.00
24762;BME280;12865;51.934;10.330;2023-05-25T02:53:08;100013.50;;;10.57;100.00
24762;BME280;12865;51.934;10.330;2023-05-25T02:55:53;100010.81;;;10.57;100.00
24762;BME280;12865;51.934;10.330;2023-05-25T02:58:39;100010.09;;;10.55;100.00
24762;BME280;12865;51.934;10.330;2023-05-25T03:01:25;100005.59;;;10.55;100.00
24762;BME280;12865;51.934;10.330;2023-05-25T03:04:15;100018.56;;;10.60;100.00
24762;BME280;12865;51.934;10.330;2023-05-25T03:07:00;100006.81;;;10.62;100.00
24762;BME280;12865;51.934;10.330;2023-05-25T03:09:46;100004.03;;;10.64;100.00
24762;BME280;12865;51.934;10.330;2023-05-25T03:12:32;100013.38;;;10.70;100.00
24762;BME280;12865;51.934;10.330;2023-05-25T03:15:17;100004.63;;;10.68;100.00
24762;BME280;12865;51.934;10.330;2023-05-25T03:18:03;100005.25;;;10.71;100.00
24762;BME280;12865;51.934;10.330;2023-05-25T03:20:49;100012.41;;;10.71;100.00
24762;BME280;12865;51.934;10.330;2023-05-25T03:23:35;100022.09;;;10.72;100.00
24762;BME280;12865;51.934;10.330;2023-05-25T03:26:20;100024.41;;;10.76;100.00
24762;BME280;12865;51.934;10.330;2023-05-25T03:29:06;100012.75;;;10.77;100.00
24762;BME280;12865;51.934;10.330;2023-05-25T03:31:52;100010.94;;;10.78;100.00
24762;BME280;12865;51.934;10.330;2023-05-25T03:34:38;100036.75;;;10.77;100.00
24762;BME280;12865;51.934;10.330;2023-05-25T03:37:25;100043.81;;;10.78;100.00
24762;BME280;12865;51.934;10.330;2023-05-25T03:40:12;100031.91;;;10.71;100.00
24762;BME280;12865;51.934;10.330;2023-05-25T03:43:04;100020.63;;;10.68;100.00
24762;BME280;12865;51.934;10.330;2023-05-25T03:45:51;100026.56;;;10.60;100.00
24762;BME280;12865;51.934;10.330;2023-05-25T03:48:56;100035.78;;;10.56;100.00
24762;BME280;12865;51.934;10.330;2023-05-25T03:51:58;100037.59;;;10.55;100.00
24762;BME280;12865;51.934;10.330;2023-05-25T03:54:57;100036.75;;;10.55;100.00
24762;BME280;12865;51.934;10.330;2023-05-25T03:57:55;100041.72;;;10.59;100.00
24762;BME280;12865;51.934;10.330;2023-05-25T04:00:41;100045.47;;;10.57;100.00
24762;BME280;12865;51.934;10.330;2023-05-25T04:03:28;100045.13;;;10.50;100.00
24762;BME280;12865;51.934;10.330;2023-05-25T04:06:17;100051.53;;;10.48;100.00
24762;BME280;12865;51.934;10.330;2023-05-25T04:09:03;100057.22;;;10.43;100.00
24762;BME280;12865;51.934;10.330;2023-05-25T04:11:49;100045.28;;;10.25;100.00
24762;BME280;12865;51.934;10.330;2023-05-25T04:14:35;100056.94;;;10.35;100.00
24762;BME280;12865;51.934;10.330;2023-05-25T04:17:24;100065.53;;;10.28;100.00
24762;BME280;12865;51.934;10.330;2023-05-25T04:20:10;100067.81;;;10.21;100.00
24762;BME280;12865;51.934;10.330;2023-05-25T04:22:55;100075.94;;;10.31;100.00
24762;BME280;12865;51.934;10.330;2023-05-25T04:25:42;100071.41;;;10.44;100.00
24762;BME280;12865;51.934;10.330;2023-05-25T04:28:28;100075.19;;;10.17;100.00
24762;BME280;12865;51.934;10.330;2023-05-25T04:31:14;100073.06;;;10.10;100.00
24762;BME280;12865;51.934;10.330;2023-05-25T04:34:00;100076.44;;;10.01;100.00
24762;BME280;12865;51.934;10.330;2023-05-25T04:36:47;100089.59;;;9.91;100.00
24762;BME280;12865;51.934;10.330;2023-05-25T04:39:33;100091.84;;;10.08;100.00
24762;BME280;12865;51.934;10.330;2023-05-25T04:42:19;100085.28;;;10.01;100.00
24762;BME280;12865;51.934;10.330;2023-05-25T06:51:18;100177.94;;;11.02;100.00
24762;BME280;12865;51.934;10.330;2023-05-25T06:54:19;100180.13;;;11.09;100.00
24762;BME280;12865;51.934;10.330;2023-05-25T06:57:05;100172.25;;;11.18;100.00
24762;BME280;12865;51.934;10.330;2023-05-25T06:59:51;100172.84;;;11.44;100.00
24762;BME280;12865;51.934;10.330;2023-05-25T07:02:43;100166.41;;;11.58;100.00
24762;BME280;12865;51.934;10.330;2023-05-25T07:06:04;100167.38;;;11.57;100.00
24762;BME280;12865;51.934;10.330;2023-05-25T07:09:24;100167.47;;;12.00;100.00
24762;BME280;12865;51.934;10.330;2023-05-25T07:12:45;100171.22;;;12.40;100.00
24762;BME280;12865;51.934;10.330;2023-05-25T07:15:39;100171.91;;;12.53;100.00
24762;BME280;12865;51.934;10.330;2023-05-25T07:18:24;100167.13;;;12.57;100.00
24762;BME280;12865;51.934;10.330;2023-05-25T07:21:10;100180.03;;;12.52;100.00
24762;BME280;12865;51.934;10.330;2023-05-25T07:23:56;100175.22;;;12.46;100.00
24762;BME280;12865;51.934;10.330;2023-05-25T07:30:16;100174.84;;;12.18;100.00
24762;BME280;12865;51.934;10.330;2023-05-25T07:33:02;100178.25;;;12.09;100.00
24762;BME280;12865;51.934;10.330;2023-05-25T07:35:56;100174.44;;;12.23;100.00
24762;BME280;12865;51.934;10.330;2023-05-25T07:38:42;100179.06;;;12.21;100.00
24762;BME280;12865;51.934;10.330;2023-05-25T07:41:27;100181.50;;;12.13;100.00
24762;BME280;12865;51.934;10.330;2023-05-25T07:44:20;100184.38;;;12.32;100.00
24762;BME280;12865;51.934;10.330;2023-05-25T07:47:29;100192.09;;;12.14;100.00
24762;BME280;12865;51.934;10.330;2023-05-25T07:50:32;100189.72;;;11.78;100.00
24762;BME280;12865;51.934;10.330;2023-05-25T07:53:19;100192.41;;;11.89;100.00
24762;BME280;12865;51.934;10.330;2023-05-25T07:56:06;100193.84;;;12.04;100.00
24762;BME280;12865;51.934;10.330;2023-05-25T07:58:52;100193.66;;;12.17;100.00
24762;BME280;12865;51.934;10.330;2023-05-25T08:01:37;100193.47;;;11.98;100.00
24762;BME280;12865;51.934;10.330;2023-05-25T08:04:25;100190.53;;;12.01;100.00
24762;BME280;12865;51.934;10.330;2023-05-25T08:07:11;100193.94;;;12.03;100.00
24762;BME280;12865;51.934;10.330;2023-05-25T08:09:57;100190.72;;;12.20;100.00
24762;BME280;12865;51.934;10.330;2023-05-25T08:12:43;100199.47;;;12.22;100.00
24762;BME280;12865;51.934;10.330;2023-05-25T08:15:29;100190.44;;;12.34;100.00
24762;BME280;12865;51.934;10.330;2023-05-25T08:18:15;100198.22;;;12.37;100.00
24762;BME280;12865;51.934;10.330;2023-05-25T08:21:14;100195.44;;;12.28;100.00
24762;BME280;12865;51.934;10.330;2023-05-25T08:24:00;100200.13;;;12.46;100.00
24762;BME280;12865;51.934;10.330;2023-05-25T08:26:52;100201.13;;;12.34;100.00
24762;BME280;12865;51.934;10.330;2023-05-25T08:29:40;100198.66;;;12.53;100.00
24762;BME280;12865;51.934;10.330;2023-05-25T08:32:29;100206.84;;;12.62;100.00
24762;BME280;12865;51.934;10.330;2023-05-25T08:35:18;100202.75;;;12.57;100.00
24762;BME280;12865;51.934;10.330;2023-05-25T08:38:04;100203.16;;;12.74;100.00
24762;BME280;12865;51.934;10.330;2023-05-25T08:41:05;100198.41;;;12.77;100.00
24762;BME280;12865;51.934;10.330;2023-05-25T08:43:52;100196.56;;;12.78;100.00
24762;BME280;12865;51.934;10.330;2023-05-25T08:46:46;100200.09;;;12.99;100.00
24762;BME280;12865;51.934;10.330;2023-05-25T08:49:47;100200.94;;;12.99;100.00
24762;BME280;12865;51.934;10.330;2023-05-25T08:52:35;100205.88;;;13.15;100.00
24762;BME280;12865;51.934;10.330;2023-05-25T08:55:26;100206.63;;;13.06;100.00
24762;BME280;12865;51.934;10.330;2023-05-25T08:58:23;100204.69;;;13.08;100.00
24762;BME280;12865;51.934;10.330;2023-05-25T09:01:17;100214.78;;;13.05;100.00
24762;BME280;12865;51.934;10.330;2023-05-25T09:04:10;100204.63;;;13.19;100.00
24762;BME280;12865;51.934;10.330;2023-05-25T09:07:01;100210.78;;;13.41;99.91
24762;BME280;12865;51.934;10.330;2023-05-25T09:09:49;100209.91;;;13.10;99.81
24762;BME280;12865;51.934;10.330;2023-05-25T09:12:37;100209.91;;;13.30;99.09
24762;BME280;12865;51.934;10.330;2023-05-25T09:15:24;100214.56;;;13.59;96.98
24762;BME280;12865;51.934;10.330;2023-05-25T09:18:09;100207.41;;;13.69;98.70
24762;BME280;12865;51.934;10.330;2023-05-25T09:20:59;100205.97;;;13.65;98.02
24762;BME280;12865;51.934;10.330;2023-05-25T09:23:47;100197.69;;;13.77;98.34
24762;BME280;12865;51.934;10.330;2023-05-25T09:26:34;100197.94;;;13.65;98.16
24762;BME280;12865;51.934;10.330;2023-05-25T09:29:27;100207.31;;;13.80;96.01
24762;BME280;12865;51.934;10.330;2023-05-25T09:32:16;100202.44;;;14.04;94.59
24762;BME280;12865;51.934;10.330;2023-05-25T09:35:10;100202.22;;;14.46;94.21
24762;BME280;12865;51.934;10.330;2023-05-25T09:37:58;100206.00;;;14.14;92.57
24762;BME280;12865;51.934;10.330;2023-05-25T09:40:44;100205.72;;;14.37;93.42
24762;BME280;12865;51.934;10.330;2023-05-25T09:43:30;100201.19;;;14.37;94.20
24762;BME280;12865;51.934;10.330;2023-05-25T09:46:17;100199.53;;;14.36;95.55
24762;BME280;12865;51.934;10.330;2023-05-25T09:49:05;100208.03;;;14.41;95.85
24762;BME280;12865;51.934;10.330;2023-05-25T09:51:52;100194.91;;;14.48;93.80
24762;BME280;12865;51.934;10.330;2023-05-25T09:54:38;100208.00;;;14.51;92.95
24762;BME280;12865;51.934;10.330;2023-05-25T09:57:25;100207.88;;;14.62;94.62
24762;BME280;12865;51.934;10.330;2023-05-25T10:00:12;100213.69;;;14.67;93.13
24762;BME280;12865;51.934;10.330;2023-05-25T10:02:58;100219.47;;;14.91;91.47
24762;BME280;12865;51.934;10.330;2023-05-25T10:05:44;100213.81;;;14.85;90.02
24762;BME280;12865;51.934;10.330;2023-05-25T10:08:30;100218.97;;;15.25;88.88
24762;BME280;12865;51.934;10.330;2023-05-25T10:11:20;100220.16;;;15.13;87.84
24762;BME280;12865;51.934;10.330;2023-05-25T10:14:07;100218.06;;;15.44;88.38
24762;BME280;12865;51.934;10.330;2023-05-25T10:16:56;100214.78;;;15.13;86.93
24762;BME280;12865;51.934;10.330;2023-05-25T10:19:53;100218.44;;;15.12;88.26
24762;BME280;12865;51.934;10.330;2023-05-25T10:22:47;100219.78;;;15.35;86.52
24762;BME280;12865;51.934;10.330;2023-05-25T10:25:39;100220.81;;;15.71;86.34
24762;BME280;12865;51.934;10.330;2023-05-25T10:28:29;100213.94;;;15.49;85.43
24762;BME280;12865;51.934;10.330;2023-05-25T10:31:17;100228.16;;;15.32;86.79
24762;BME280;12865;51.934;10.330;2023-05-25T10:34:03;100225.00;;;15.56;88.53
24762;BME280;12865;51.934;10.330;2023-05-25T10:36:50;100218.63;;;15.47;87.29
24762;BME280;12865;51.934;10.330;2023-05-25T10:39:35;100220.63;;;15.36;89.68
24762;BME280;12865;51.934;10.330;2023-05-25T10:42:21;100218.78;;;15.36;88.20
24762;BME280;12865;51.934;10.330;2023-05-25T10:45:08;100232.75;;;15.49;88.25
24762;BME280;12865;51.934;10.330;2023-05-25T10:47:54;100221.63;;;15.54;88.79
24762;BME280;12865;51.934;10.330;2023-05-25T10:50:40;100216.50;;;15.60;86.40
24762;BME280;12865;51.934;10.330;2023-05-25T10:53:26;100218.13;;;15.98;84.80
24762;BME280;12865;51.934;10.330;2023-05-25T10:56:12;100226.66;;;15.94;83.30
24762;BME280;12865;51.934;10.330;2023-05-25T10:58:58;100212.56;;;16.09;83.17
24762;BME280;12865;51.934;10.330;2023-05-25T11:01:50;100212.34;;;16.03;83.50
24762;BME280;12865;51.934;10.330;2023-05-25T11:04:36;100208.22;;;16.44;84.32
24762;BME280;12865;51.934;10.330;2023-05-25T11:07:22;100214.16;;;16.83;80.70
24762;BME280;12865;51.934;10.330;2023-05-25T11:10:08;100214.56;;;16.88;78.97
24762;BME280;12865;51.934;10.330;2023-05-25T11:12:53;100209.63;;;16.83;82.16
24762;BME280;12865;51.934;10.330;2023-05-25T11:16:20;100211.75;;;16.98;78.79
24762;BME280;12865;51.934;10.330;2023-05-25T11:19:13;100214.00;;;16.84;81.78
24762;BME280;12865;51.934;10.330;2023-05-25T11:22:16;100216.13;;;17.16;80.42
24762;BME280;12865;51.934;10.330;2023-05-25T11:28:21;100214.00;;;17.02;80.84
24762;BME280;12865;51.934;10.330;2023-05-25T11:31:08;100212.16;;;16.85;82.41
24762;BME280;12865;51.934;10.330;2023-05-25T11:33:55;100217.88;;;16.64;82.03
24762;BME280;12865;51.934;10.330;2023-05-25T11:36:45;100215.94;;;16.39;83.95
24762;BME280;12865;51.934;10.330;2023-05-25T11:39:31;100211.69;;;16.54;80.14
24762;BME280;12865;51.934;10.330;2023-05-25T11:42:19;100218.03;;;16.80;81.56
24762;BME280;12865;51.934;10.330;2023-05-25T11:45:09;100226.75;;;16.74;79.91
24762;BME280;12865;51.934;10.330;2023-05-25T11:47:56;100228.16;;;16.51;80.06
24762;BME280;12865;51.934;10.330;2023-05-25T11:50:42;100216.84;;;16.47;79.45
24762;BME280;12865;51.934;10.330;2023-05-25T11:53:27;100215.03;;;16.66;77.44
24762;BME280;12865;51.934;10.330;2023-05-25T11:56:14;100221.91;;;17.04;77.84
24762;BME280;12865;51.934;10.330;2023-05-25T11:59:00;100219.19;;;17.21;76.35
24762;BME280;12865;51.934;10.330;2023-05-25T12:02:03;100213.16;;;17.02;75.06
24762;BME280;12865;51.934;10.330;2023-05-25T12:04:53;100214.44;;;17.41;75.89
24762;BME280;12865;51.934;10.330;2023-05-25T12:07:43;100216.22;;;17.58;75.21
24762;BME280;12865;51.934;10.330;2023-05-25T12:10:31;100210.31;;;17.29;76.87
24762;BME280;12865;51.934;10.330;2023-05-25T12:13:16;100219.03;;;17.49;74.70
24762;BME280;12865;51.934;10.330;2023-05-25T12:16:02;100211.22;;;17.38;74.13
24762;BME280;12865;51.934;10.330;2023-05-25T12:18:48;100214.50;;;17.49;73.95
24762;BME280;12865;51.934;10.330;2023-05-25T12:21:36;100218.34;;;17.47;72.60
24762;BME280;12865;51.934;10.330;2023-05-25T12:24:22;100211.75;;;17.41;74.23
24762;BME280;12865;51.934;10.330;2023-05-25T12:27:19;100214.13;;;17.70;71.65
24762;BME280;12865;51.934;10.330;2023-05-25T12:30:07;100214.69;;;17.56;70.96
24762;BME280;12865;51.934;10.330;2023-05-25T12:32:59;100213.72;;;17.91;71.25
24762;BME280;12865;51.934;10.330;2023-05-25T12:35:46;100215.53;;;17.82;71.72
24762;BME280;12865;51.934;10.330;2023-05-25T12:38:33;100211.09;;;17.47;74.75
24762;BME280;12865;51.934;10.330;2023-05-25T12:41:19;100211.38;;;17.62;73.68
24762;BME280;12865;51.934;10.330;2023-05-25T12:44:04;100212.84;;;17.56;73.69
24762;BME280;12865;51.934;10.330;2023-05-25T12:46:51;100211.97;;;17.82;72.64
24762;BME280;12865;51.934;10.330;2023-05-25T12:49:38;100212.88;;;17.39;73.77
24762;BME280;12865;51.934;10.330;2023-05-25T12:52:36;100217.19;;;17.75;72.55
24762;BME280;12865;51.934;10.330;2023-05-25T12:58:27;100212.38;;;17.35;70.09
24762;BME280;12865;51.934;10.330;2023-05-25T13:01:13;100204.84;;;17.47;73.47
24762;BME280;12865;51.934;10.330;2023-05-25T13:03:58;100209.16;;;17.57;71.85
24762;BME280;12865;51.934;10.330;2023-05-25T13:06:44;100203.56;;;17.51;71.66
24762;BME280;12865;51.934;10.330;2023-05-25T13:09:30;100202.63;;;17.68;71.10
24762;BME280;12865;51.934;10.330;2023-05-25T13:12:17;100203.63;;;17.67;67.93
24762;BME280;12865;51.934;10.330;2023-05-25T13:15:04;100202.91;;;17.57;69.16
24762;BME280;12865;51.934;10.330;2023-05-25T13:17:52;100200.72;;;17.86;69.18
24762;BME280;12865;51.934;10.330;2023-05-25T13:20:38;100193.63;;;17.59;71.67
24762;BME280;12865;51.934;10.330;2023-05-25T13:23:24;100191.91;;;17.76;70.56
24762;BME280;12865;51.934;10.330;2023-05-25T13:26:09;100193.16;;;17.38;71.94
24762;BME280;12865;51.934;10.330;2023-05-25T13:28:56;100189.94;;;17.86;70.00
24762;BME280;12865;51.934;10.330;2023-05-25T13:31:45;100180.84;;;17.95;70.95
24762;BME280;12865;51.934;10.330;2023-05-25T13:34:31;100177.94;;;18.47;68.69
24762;BME280;12865;51.934;10.330;2023-05-25T13:37:18;100186.94;;;18.05;68.93
24762;BME280;12865;51.934;10.330;2023-05-25T13:40:04;100192.34;;;18.05;68.60
24762;BME280;12865;51.934;10.330;2023-05-25T13:42:50;100184.41;;;17.62;71.94
24762;BME280;12865;51.934;10.330;2023-05-25T13:45:37;100177.72;;;17.74;69.09
24762;BME280;12865;51.934;10.330;2023-05-25T13:48:23;100181.22;;;18.00;67.03
24762;BME280;12865;51.934;10.330;2023-05-25T13:51:10;100180.63;;;18.47;66.47
24762;BME280;12865;51.934;10.330;2023-05-25T13:53:55;100179.94;;;18.53;65.31
24762;BME280;12865;51.934;10.330;2023-05-25T13:56:41;100183.31;;;18.47;64.88
24762;BME280;12865;51.934;10.330;2023-05-25T13:59:27;100175.53;;;18.20;65.53
24762;BME280;12865;51.934;10.330;2023-05-25T14:02:12;100186.59;;;18.09;65.29
24762;BME280;12865;51.934;10.330;2023-05-25T14:04:58;100176.47;;;18.02;67.01
24762;BME280;12865;51.934;10.330;2023-05-25T14:07:45;100168.22;;;18.04;66.35
24762;BME280;12865;51.934;10.330;2023-05-25T14:10:31;100173.09;;;17.92;66.54
24762;BME280;12865;51.934;10.330;2023-05-25T14:13:17;100164.91;;;18.26;67.71
24762;BME280;12865;51.934;10.330;2023-05-25T14:16:02;100157.00;;;18.49;66.52
24762;BME280;12865;51.934;10.330;2023-05-25T14:18:48;100169.34;;;18.60;63.85
24762;BME280;12865;51.934;10.330;2023-05-25T14:21:34;100163.63;;;18.63;63.64
24762;BME280;12865;51.934;10.330;2023-05-25T14:24:20;100166.59;;;18.43;64.46
24762;BME280;12865;51.934;10.330;2023-05-25T14:27:05;100166.44;;;18.53;65.03
24762;BME280;12865;51.934;10.330;2023-05-25T14:29:51;100163.56;;;18.47;63.87
24762;BME280;12865;51.934;10.330;2023-05-25T14:32:37;100163.25;;;18.58;65.10
24762;BME280;12865;51.934;10.330;2023-05-25T14:35:23;100155.69;;;18.69;62.40
24762;BME280;12865;51.934;10.330;2023-05-25T14:38:08;100165.59;;;18.28;62.18
24762;BME280;12865;51.934;10.330;2023-05-25T14:40:54;100165.31;;;18.72;60.33
24762;BME280;12865;51.934;10.330;2023-05-25T14:43:40;100163.63;;;18.63;62.34
24762;BME280;12865;51.934;10.330;2023-05-25T14:46:26;100165.47;;;18.62;62.15
24762;BME280;12865;51.934;10.330;2023-05-25T14:49:11;100166.34;;;18.63;62.94
24762;BME280;12865;51.934;10.330;2023-05-25T14:51:58;100160.03;;;18.54;64.27
24762;BME280;12865;51.934;10.330;2023-05-25T14:54:43;100171.00;;;18.44;64.44
24762;BME280;12865;51.934;10.330;2023-05-25T14:57:29;100175.38;;;18.21;64.18
24762;BME280;12865;51.934;10.330;2023-05-25T15:00:16;100162.03;;;18.20;66.37
24762;BME280;12865;51.934;10.330;2023-05-25T15:03:01;100162.06;;;18.36;65.93
24762;BME280;12865;51.934;10.330;2023-05-25T15:05:47;100171.09;;;18.11;63.89
24762;BME280;12865;51.934;10.330;2023-05-25T15:08:33;100168.59;;;18.25;65.43
24762;BME280;12865;51.934;10.330;2023-05-25T15:11:22;100164.69;;;18.12;66.08
24762;BME280;12865;51.934;10.330;2023-05-25T15:14:08;100162.53;;;17.73;67.15
24762;BME280;12865;51.934;10.330;2023-05-25T15:16:53;100169.13;;;17.71;65.67
24762;BME280;12865;51.934;10.330;2023-05-25T15:19:39;100167.50;;;17.60;66.56
24762;BME280;12865;51.934;10.330;2023-05-25T15:22:25;100170.50;;;17.83;66.87
24762;BME280;12865;51.934;10.330;2023-05-25T15:25:11;100171.72;;;17.96;65.51
24762;BME280;12865;51.934;10.330;2023-05-25T15:27:57;100164.84;;;17.94;64.50
24762;BME280;12865;51.934;10.330;2023-05-25T15:30:43;100166.78;;;17.76;64.46
24762;BME280;12865;51.934;10.330;2023-05-25T15:33:31;100160.56;;;17.83;65.29
24762;BME280;12865;51.934;10.330;2023-05-25T15:36:17;100161.09;;;17.87;65.43
24762;BME280;12865;51.934;10.330;2023-05-25T15:39:03;100164.41;;;17.81;64.02
24762;BME280;12865;51.934;10.330;2023-05-25T15:41:50;100164.94;;;17.50;66.25
24762;BME280;12865;51.934;10.330;2023-05-25T15:44:36;100160.06;;;17.54;66.40
24762;BME280;12865;51.934;10.330;2023-05-25T15:47:21;100164.88;;;17.68;67.62
24762;BME280;12865;51.934;10.330;2023-05-25T15:50:08;100166.63;;;17.77;65.22
24762;BME280;12865;51.934;10.330;2023-05-25T15:52:53;100156.13;;;17.74;65.57
24762;BME280;12865;51.934;10.330;2023-05-25T15:55:39;100153.63;;;17.81;63.68
24762;BME280;12865;51.934;10.330;2023-05-25T15:58:25;100155.47;;;17.80;62.76
24762;BME280;12865;51.934;10.330;2023-05-25T16:01:10;100153.38;;;17.58;64.54
24762;BME280;12865;51.934;10.330;2023-05-25T16:03:56;100160.38;;;17.77;65.10
24762;BME280;12865;51.934;10.330;2023-05-25T16:06:42;100154.88;;;18.02;64.87
24762;BME280;12865;51.934;10.330;2023-05-25T16:09:27;100155.22;;;17.32;66.86
24762;BME280;12865;51.934;10.330;2023-05-25T16:12:14;100154.03;;;17.60;67.48
24762;BME280;12865;51.934;10.330;2023-05-25T16:15:00;100147.38;;;17.72;65.94
24762;BME280;12865;51.934;10.330;2023-05-25T16:17:45;100145.38;;;17.82;65.96
24762;BME280;12865;51.934;10.330;2023-05-25T16:20:31;100144.97;;;17.61;65.53
24762;BME280;12865;51.934;10.330;2023-05-25T16:23:17;100145.00;;;17.69;65.82
24762;BME280;12865;51.934;10.330;2023-05-25T16:26:05;100146.88;;;17.43;66.64
24762;BME280;12865;51.934;10.330;2023-05-25T16:28:54;100140.09;;;17.31;67.36
24762;BME280;12865;51.934;10.330;2023-05-25T16:31:40;100138.16;;;17.49;67.07
24762;BME280;12865;51.934;10.330;2023-05-25T16:34:25;100141.03;;;17.21;68.68
24762;BME280;12865;51.934;10.330;2023-05-25T16:37:11;100138.09;;;17.41;67.76
24762;BME280;12865;51.934;10.330;2023-05-25T16:39:57;100135.44;;;17.15;68.89
24762;BME280;12865;51.934;10.330;2023-05-25T16:42:42;100138.94;;;16.81;71.17
24762;BME280;12865;51.934;10.330;2023-05-25T16:45:28;100135.88;;;17.02;70.97
24762;BME280;12865;51.934;10.330;2023-05-25T16:48:14;100131.25;;;17.20;70.68